createdAt,value
2022-08-23T00:00:00.000Z,69.09
2022-08-23T00:15:00.000Z,69.91
2022-08-23T00:30:00.000Z,70.57
2022-08-23T00:45:00.000Z,71.66
2022-08-23T01:00:00.000Z,71.68
2022-08-23T01:15:00.000Z,70.02
2022-08-23T01:30:00.000Z,69.04
2022-08-23T01:45:00.000Z,69.8
2022-08-23T02:00:00.000Z,71.16
2022-08-23T02:15:00.000Z,72.35
2022-08-23T02:30:00.000Z,71.61
2022-08-23T02:45:00.000Z,71.36
2022-08-23T03:00:00.000Z,71.33
2022-08-23T03:15:00.000Z,71.58
2022-08-23T03:30:00.000Z,77.23
2022-08-23T03:45:00.000Z,76.86
2022-08-23T04:00:00.000Z,75.94
2022-08-23T04:15:00.000Z,75.02
2022-08-23T04:30:00.000Z,73.78
2022-08-23T04:45:00.000Z,72.55
2022-08-23T05:00:00.000Z,72.33
2022-08-23T05:15:00.000Z,72.38
2022-08-23T05:30:00.000Z,71.09
2022-08-23T05:45:00.000Z,69.44
2022-08-23T06:00:00.000Z,67.05
2022-08-23T06:15:00.000Z,63.94
2022-08-23T06:30:00.000Z,61.67
2022-08-23T06:45:00.000Z,55.8
2022-08-23T07:00:00.000Z,55.44
2022-08-23T07:15:00.000Z,55.19
2022-08-23T07:30:00.000Z,51.34
2022-08-23T07:45:00.000Z,48.71
2022-08-23T08:00:00.000Z,47.76
2022-08-23T08:15:00.000Z,45.29
2022-08-23T08:30:00.000Z,45.83
2022-08-23T08:45:00.000Z,45.74
2022-08-23T09:00:00.000Z,48.11
2022-08-23T09:15:00.000Z,47.83
2022-08-23T09:30:00.000Z,47.27
2022-08-23T09:45:00.000Z,45.24
2022-08-23T10:00:00.000Z,44.07
2022-08-23T10:15:00.000Z,43.62
2022-08-23T10:30:00.000Z,43.47
2022-08-23T10:45:00.000Z,42.85
2022-08-23T11:00:00.000Z,44.64
2022-08-23T11:15:00.000Z,45.18
2022-08-23T11:30:00.000Z,44.04
2022-08-23T11:45:00.000Z,41.63
2022-08-23T12:00:00.000Z,40.08
2022-08-23T12:15:00.000Z,40.33
2022-08-23T12:30:00.000Z,41.31
2022-08-23T12:45:00.000Z,40.71
2022-08-23T13:00:00.000Z,39.54
2022-08-23T13:15:00.000Z,36.94
2022-08-23T13:30:00.000Z,35.43
2022-08-23T13:45:00.000Z,36.08
2022-08-23T14:00:00.000Z,36.1
2022-08-23T14:15:00.000Z,36.3
2022-08-23T14:45:00.000Z,38.51
2022-08-23T14:45:00.000Z,38.15
2022-08-23T15:00:00.000Z,37.78
2022-08-23T15:15:00.000Z,37.19
2022-08-23T15:30:00.000Z,39.04
2022-08-23T15:45:00.000Z,38.8
2022-08-23T16:00:00.000Z,38.55
2022-08-23T16:15:00.000Z,38.2
2022-08-23T16:30:00.000Z,38.89
2022-08-23T16:45:00.000Z,39.91
2022-08-23T17:00:00.000Z,39.48
2022-08-23T17:15:00.000Z,42.24
2022-08-23T17:30:00.000Z,48.54
2022-08-23T17:45:00.000Z,50.19
2022-08-23T18:00:00.000Z,51.3
2022-08-23T18:15:00.000Z,52.24
2022-08-23T18:30:00.000Z,52.32
2022-08-23T18:45:00.000Z,53.75
2022-08-23T19:00:00.000Z,55.23
2022-08-23T19:15:00.000Z,56.75
2022-08-23T19:30:00.000Z,59.18
2022-08-23T19:45:00.000Z,57.95
2022-08-23T20:00:00.000Z,56.92
2022-08-23T20:15:00.000Z,55.54
2022-08-23T20:30:00.000Z,54.19
2022-08-23T20:45:00.000Z,53.13
2022-08-23T21:00:00.000Z,52.93
2022-08-23T21:15:00.000Z,53.29
2022-08-23T21:30:00.000Z,54.18
2022-08-23T21:45:00.000Z,54.07
2022-08-23T22:00:00.000Z,55.71
2022-08-23T22:15:00.000Z,56.99
2022-08-23T22:30:00.000Z,58.25
2022-08-23T22:45:00.000Z,59.28
2022-08-23T23:00:00.000Z,60.54
2022-08-23T23:15:00.000Z,63.14
2022-08-23T23:30:00.000Z,67.12
2022-08-23T23:45:00.000Z,67.49
